Time;durP1;ratioP1;P1;durP2;ratioP2;P2;SDS_P1;SDS_P2;PMS_P1;PMS_P2;Temp;Humidity;BMP_temperature;BMP_pressure;BME280_temperature;BME280_humidity;BME280_pressure;Samples;Min_cycle;Max_cycle;Signal;HPM_P1;HPM_P2
2023/04/09 00:00:18;;;;;;;16.98;10.35;;;;;;;;;;5085939;28;20040;-59
2023/04/09 00:02:44;;;;;;;16.25;8.50;;;;;;;;;;5086028;28;20121;-59
2023/04/09 00:05:11;;;;;;;15.07;9.57;;;;;;;;;;5087776;27;20052;-59
2023/04/09 00:07:37;;;;;;;16.08;10.88;;;;;;;;;;5085197;28;20036;-59
2023/04/09 00:10:03;;;;;;;18.58;8.88;;;;;;;;;;5086949;28;20216;-59
2023/04/09 00:12:29;;;;;;;17.10;9.65;;;;;;;;;;5086098;28;20103;-59
2023/04/09 00:14:56;;;;;;;21.75;10.02;;;;;;;;;;5070293;28;20043;-59
2023/04/09 00:17:22;;;;;;;14.85;9.48;;;;;;;;;;5085901;28;20039;-59
2023/04/09 00:19:48;;;;;;;17.63;9.18;;;;;;;;;;5085823;28;20047;-59
2023/04/09 00:22:14;;;;;;;19.13;10.88;;;;;;;;;;5087456;28;20102;-59
2023/04/09 00:24:40;;;;;;;17.95;10.50;;;;;;;;;;5085989;28;20054;-59
2023/04/09 00:27:06;;;;;;;17.98;10.57;;;;;;;;;;5086838;28;20040;-59
2023/04/09 00:29:32;;;;;;;16.02;9.65;;;;;;;;;;5082557;28;20040;-59
2023/04/09 00:31:59;;;;;;;13.80;9.38;;;;;;;;;;5069868;28;20106;-59
2023/04/09 00:34:25;;;;;;;19.30;10.18;;;;;;;;;;5086781;27;20046;-59
2023/04/09 00:36:51;;;;;;;15.63;9.18;;;;;;;;;;5086016;28;20041;-59
2023/04/09 00:39:17;;;;;;;19.75;10.38;;;;;;;;;;5086166;28;20066;-59
2023/04/09 00:41:43;;;;;;;15.13;10.10;;;;;;;;;;5087360;28;20538;-59
2023/04/09 00:44:09;;;;;;;17.92;9.93;;;;;;;;;;5085864;28;20044;-59
2023/04/09 00:46:35;;;;;;;18.48;9.50;;;;;;;;;;5085001;28;20044;-59
2023/04/09 00:49:01;;;;;;;22.50;12.23;;;;;;;;;;5086475;28;20045;-59
2023/04/09 00:51:27;;;;;;;17.33;10.60;;;;;;;;;;5083845;28;20040;-59
2023/04/09 00:53:54;;;;;;;14.90;10.13;;;;;;;;;;5086783;28;20036;-59
2023/04/09 00:56:21;;;;;;;18.60;9.70;;;;;;;;;;5086276;28;20794;-59
2023/04/09 00:58:47;;;;;;;19.20;9.50;;;;;;;;;;5085444;28;20032;-59
2023/04/09 01:01:13;;;;;;;18.98;10.40;;;;;;;;;;5084052;28;20048;-59
2023/04/09 01:03:40;;;;;;;18.20;10.20;;;;;;;;;;5084707;28;20429;-59
2023/04/09 01:06:06;;;;;;;16.30;10.88;;;;;;;;;;5068927;28;20654;-59
2023/04/09 01:08:32;;;;;;;16.23;9.25;;;;;;;;;;5084733;28;20060;-59
2023/04/09 01:10:58;;;;;;;15.68;9.48;;;;;;;;;;5084576;28;20094;-60
2023/04/09 01:13:36;;;;;;;16.60;9.45;;;;;;;;;;5085963;28;20071;-59
2023/04/09 01:16:02;;;;;;;15.73;9.45;;;;;;;;;;5084318;28;20032;-59
2023/04/09 01:18:30;;;;;;;14.48;9.98;;;;;;;;;;5084611;28;20044;-59
2023/04/09 01:20:58;;;;;;;15.10;9.73;;;;;;;;;;5083687;28;20056;-59
2023/04/09 01:23:46;;;;;;;16.20;9.88;;;;;;;;;;5085282;28;20040;-59
2023/04/09 01:26:12;;;;;;;19.50;10.73;;;;;;;;;;5086862;28;20543;-59
2023/04/09 01:28:42;;;;;;;19.80;11.82;;;;;;;;;;5083867;28;20581;-59
2023/04/09 01:31:12;;;;;;;19.88;10.23;;;;;;;;;;5084544;28;20028;-59
2023/04/09 01:33:39;;;;;;;17.42;9.90;;;;;;;;;;5082919;28;20052;-59
2023/04/09 01:36:06;;;;;;;18.30;10.40;;;;;;;;;;5086344;28;20038;-59
2023/04/09 01:38:33;;;;;;;19.65;10.32;;;;;;;;;;5084866;28;20048;-59
2023/04/09 01:40:59;;;;;;;20.15;9.85;;;;;;;;;;5083958;28;20359;-59
2023/04/09 01:43:26;;;;;;;16.20;10.82;;;;;;;;;;5085417;27;20040;-59
2023/04/09 01:45:54;;;;;;;16.40;10.85;;;;;;;;;;5083203;28;20094;-59
2023/04/09 01:48:20;;;;;;;18.08;10.57;;;;;;;;;;5083861;28;20044;-59
2023/04/09 01:50:46;;;;;;;19.50;10.50;;;;;;;;;;5067421;28;20036;-59
2023/04/09 01:53:13;;;;;;;19.13;10.70;;;;;;;;;;5084942;28;20036;-59
2023/04/09 01:55:39;;;;;;;21.40;11.20;;;;;;;;;;5085239;28;20618;-59
2023/04/09 01:58:05;;;;;;;18.25;10.27;;;;;;;;;;5085423;28;20770;-59
2023/04/09 02:00:35;;;;;;;16.67;10.05;;;;;;;;;;5083545;28;20752;-59
2023/04/09 02:03:06;;;;;;;17.52;10.25;;;;;;;;;;5083217;28;20079;-59
2023/04/09 02:05:35;;;;;;;22.60;10.52;;;;;;;;;;5084149;28;20627;-59
2023/04/09 02:08:02;;;;;;;20.23;11.90;;;;;;;;;;5078442;28;20048;-59
2023/04/09 02:10:30;;;;;;;16.90;11.65;;;;;;;;;;5084178;28;20048;-59
2023/04/09 02:12:57;;;;;;;24.38;11.13;;;;;;;;;;5085089;27;20893;-59
2023/04/09 02:15:24;;;;;;;21.13;12.57;;;;;;;;;;5083059;28;20098;-59
2023/04/09 02:17:50;;;;;;;20.33;11.48;;;;;;;;;;5084196;28;21132;-59
2023/04/09 02:20:17;;;;;;;19.90;11.27;;;;;;;;;;5083135;28;20098;-59
2023/04/09 02:22:43;;;;;;;15.85;9.73;;;;;;;;;;5080892;28;20052;-59
2023/04/09 02:25:09;;;;;;;17.90;10.93;;;;;;;;;;5082912;28;20059;-59
2023/04/09 02:27:35;;;;;;;20.38;11.10;;;;;;;;;;5083984;28;20532;-59
2023/04/09 02:30:01;;;;;;;18.75;12.77;;;;;;;;;;5082400;28;20044;-59
2023/04/09 02:32:27;;;;;;;25.20;10.80;;;;;;;;;;5085895;28;20044;-59
2023/04/09 02:34:54;;;;;;;22.35;11.02;;;;;;;;;;5087756;28;20123;-59
2023/04/09 02:37:20;;;;;;;18.17;10.13;;;;;;;;;;5070252;28;20100;-59
2023/04/09 02:39:46;;;;;;;21.42;12.80;;;;;;;;;;5087710;28;20040;-60
2023/04/09 02:42:12;;;;;;;18.73;11.15;;;;;;;;;;5088155;28;20089;-60
2023/04/09 02:44:38;;;;;;;22.58;13.23;;;;;;;;;;5087887;28;20036;-59
2023/04/09 02:47:04;;;;;;;20.70;12.13;;;;;;;;;;5087695;28;20158;-60
2023/04/09 02:49:30;;;;;;;25.88;11.85;;;;;;;;;;5088943;28;20130;-60
2023/04/09 02:51:56;;;;;;;20.83;12.77;;;;;;;;;;5087322;27;20135;-60
2023/04/09 02:54:22;;;;;;;18.70;10.25;;;;;;;;;;5072681;28;20034;-60
2023/04/09 02:56:48;;;;;;;17.45;11.38;;;;;;;;;;5087926;28;20054;-60
2023/04/09 02:59:15;;;;;;;24.63;12.63;;;;;;;;;;5088643;28;20746;-60
2023/04/09 03:01:41;;;;;;;19.83;10.52;;;;;;;;;;5084992;28;20051;-60
2023/04/09 03:04:07;;;;;;;20.88;11.52;;;;;;;;;;5089663;28;20036;-60
2023/04/09 03:06:33;;;;;;;20.95;12.60;;;;;;;;;;5086806;28;20047;-60
2023/04/09 03:08:59;;;;;;;28.13;12.25;;;;;;;;;;5087355;28;20111;-60
2023/04/09 03:11:25;;;;;;;22.35;12.32;;;;;;;;;;5087459;28;20044;-60
2023/04/09 03:13:51;;;;;;;22.60;11.60;;;;;;;;;;5087879;28;20601;-60
2023/04/09 03:16:17;;;;;;;20.85;12.27;;;;;;;;;;5086925;28;20089;-60
2023/04/09 03:18:44;;;;;;;19.83;11.00;;;;;;;;;;5085310;28;20666;-60
2023/04/09 03:21:10;;;;;;;18.27;12.10;;;;;;;;;;5087339;28;20063;-60
2023/04/09 03:23:36;;;;;;;21.70;11.65;;;;;;;;;;5084535;28;20137;-59
2023/04/09 03:26:03;;;;;;;22.20;12.50;;;;;;;;;;5086378;28;20057;-60
2023/04/09 03:28:29;;;;;;;22.35;12.48;;;;;;;;;;5086312;28;20043;-60
2023/04/09 03:30:55;;;;;;;19.40;12.05;;;;;;;;;;5085872;28;20056;-60
2023/04/09 03:33:21;;;;;;;18.83;11.15;;;;;;;;;;5085821;28;20048;-60
2023/04/09 03:35:47;;;;;;;21.00;12.23;;;;;;;;;;5086249;28;20977;-60
2023/04/09 03:38:14;;;;;;;26.88;12.88;;;;;;;;;;5086958;28;20937;-60
2023/04/09 03:40:41;;;;;;;22.17;13.35;;;;;;;;;;5086156;28;20036;-60
2023/04/09 03:43:07;;;;;;;22.88;12.57;;;;;;;;;;5086076;28;20678;-60
2023/04/09 03:45:33;;;;;;;18.95;11.68;;;;;;;;;;5068775;28;20527;-60
2023/04/09 03:47:59;;;;;;;19.42;10.80;;;;;;;;;;5085840;28;20571;-60
2023/04/09 03:50:26;;;;;;;20.98;11.90;;;;;;;;;;5085453;28;20088;-60
2023/04/09 03:52:52;;;;;;;20.05;11.70;;;;;;;;;;5086855;28;20044;-60
2023/04/09 03:55:18;;;;;;;19.58;10.73;;;;;;;;;;5085582;28;20496;-60
2023/04/09 03:57:44;;;;;;;22.13;12.65;;;;;;;;;;5087006;28;20048;-60
2023/04/09 04:00:10;;;;;;;19.55;11.48;;;;;;;;;;5086388;28;20037;-60
2023/04/09 04:02:36;;;;;;;24.88;12.20;;;;;;;;;;5085133;28;20528;-60
2023/04/09 04:05:02;;;;;;;24.38;11.63;;;;;;;;;;5086435;27;20711;-60
2023/04/09 04:07:28;;;;;;;22.63;11.98;;;;;;;;;;5086717;28;20099;-60
2023/04/09 04:09:55;;;;;;;20.30;11.82;;;;;;;;;;5085523;28;20072;-60
2023/04/09 04:12:21;;;;;;;20.63;13.77;;;;;;;;;;5086591;28;20036;-60
2023/04/09 04:14:47;;;;;;;20.33;11.63;;;;;;;;;;5085817;28;20056;-60
2023/04/09 04:17:13;;;;;;;20.85;12.80;;;;;;;;;;5088542;28;20070;-60
2023/04/09 04:19:39;;;;;;;23.13;12.02;;;;;;;;;;5085416;28;20092;-60
2023/04/09 04:22:05;;;;;;;24.65;12.20;;;;;;;;;;5071041;28;20557;-60
2023/04/09 04:24:31;;;;;;;22.42;12.43;;;;;;;;;;5069058;28;20357;-59
2023/04/09 04:26:57;;;;;;;22.13;14.25;;;;;;;;;;5085331;28;20045;-59
2023/04/09 04:29:23;;;;;;;27.10;14.10;;;;;;;;;;5084738;28;20111;-59
2023/04/09 04:31:49;;;;;;;23.45;11.45;;;;;;;;;;5083471;28;20075;-59
2023/04/09 04:34:15;;;;;;;20.80;12.07;;;;;;;;;;5083599;28;20075;-60
2023/04/09 04:36:41;;;;;;;21.25;12.30;;;;;;;;;;5085108;28;20123;-60
2023/04/09 04:39:07;;;;;;;23.67;13.50;;;;;;;;;;5086943;28;20071;-59
2023/04/09 04:41:33;;;;;;;26.80;13.45;;;;;;;;;;5086768;28;20043;-60
2023/04/09 04:43:59;;;;;;;27.83;14.05;;;;;;;;;;5085860;28;20043;-60
2023/04/09 04:46:26;;;;;;;20.00;12.98;;;;;;;;;;5086248;28;20041;-60
2023/04/09 04:48:52;;;;;;;21.70;12.07;;;;;;;;;;5085830;28;20032;-60
2023/04/09 04:51:18;;;;;;;23.00;12.38;;;;;;;;;;5085485;28;20858;-60
2023/04/09 04:53:44;;;;;;;23.83;13.02;;;;;;;;;;5085080;28;20048;-60
2023/04/09 04:56:16;;;;;;;21.63;13.25;;;;;;;;;;5086688;28;20152;-59
2023/04/09 04:58:42;;;;;;;24.35;13.23;;;;;;;;;;5086152;28;20032;-60
2023/04/09 05:01:08;;;;;;;22.73;13.02;;;;;;;;;;5084580;28;20045;-60
2023/04/09 05:03:34;;;;;;;24.60;13.13;;;;;;;;;;5083278;28;20075;-60
2023/04/09 05:06:00;;;;;;;24.05;13.00;;;;;;;;;;5085614;28;20438;-60
2023/04/09 05:08:26;;;;;;;26.08;13.48;;;;;;;;;;5083270;28;20280;-60
2023/04/09 05:10:54;;;;;;;25.30;14.70;;;;;;;;;;5086268;28;20071;-60
2023/04/09 05:13:21;;;;;;;21.20;13.15;;;;;;;;;;5086133;28;20569;-60
2023/04/09 05:15:47;;;;;;;25.95;15.98;;;;;;;;;;5085388;28;20040;-60
2023/04/09 05:18:13;;;;;;;23.35;14.60;;;;;;;;;;5084939;28;20585;-60
2023/04/09 05:20:39;;;;;;;22.20;13.35;;;;;;;;;;5083929;28;20245;-60
2023/04/09 05:23:05;;;;;;;25.65;14.65;;;;;;;;;;5084250;28;20036;-60
2023/04/09 05:25:31;;;;;;;27.00;15.45;;;;;;;;;;5083770;28;20044;-60
2023/04/09 05:27:57;;;;;;;25.30;15.85;;;;;;;;;;5084663;28;20040;-60
2023/04/09 05:30:23;;;;;;;33.13;16.65;;;;;;;;;;5086566;28;20040;-60
2023/04/09 05:32:49;;;;;;;28.13;14.98;;;;;;;;;;5084393;27;20036;-60
2023/04/09 05:35:16;;;;;;;29.75;15.13;;;;;;;;;;5083349;28;20562;-60
2023/04/09 05:37:42;;;;;;;26.73;15.98;;;;;;;;;;5085147;28;20108;-60
2023/04/09 05:40:08;;;;;;;26.77;15.45;;;;;;;;;;5085035;28;20104;-60
2023/04/09 05:42:34;;;;;;;26.88;16.58;;;;;;;;;;5084306;28;20075;-60
2023/04/09 05:45:01;;;;;;;25.73;15.90;;;;;;;;;;5069977;28;20048;-60
2023/04/09 05:47:27;;;;;;;25.83;15.85;;;;;;;;;;5083798;28;20044;-60
2023/04/09 05:49:53;;;;;;;29.17;14.82;;;;;;;;;;5084031;28;20498;-60
2023/04/09 05:52:20;;;;;;;30.05;15.57;;;;;;;;;;5083766;28;20055;-60
2023/04/09 05:54:46;;;;;;;26.48;15.13;;;;;;;;;;5084019;27;20086;-60
2023/04/09 05:57:12;;;;;;;22.67;15.20;;;;;;;;;;5084784;28;20037;-60
2023/04/09 05:59:38;;;;;;;23.70;13.75;;;;;;;;;;5083899;28;20100;-60
2023/04/09 06:02:04;;;;;;;24.25;13.20;;;;;;;;;;5083684;28;20044;-60
2023/04/09 06:04:30;;;;;;;28.65;15.80;;;;;;;;;;5083441;28;20055;-60
2023/04/09 06:06:59;;;;;;;26.23;13.27;;;;;;;;;;5084425;28;20535;-60
2023/04/09 06:09:26;;;;;;;25.20;13.82;;;;;;;;;;5066564;28;20569;-60
2023/04/09 06:11:52;;;;;;;25.75;15.15;;;;;;;;;;5084922;28;20052;-60
2023/04/09 06:14:18;;;;;;;23.90;14.95;;;;;;;;;;5082939;28;20518;-59
2023/04/09 06:16:44;;;;;;;28.30;15.77;;;;;;;;;;5084645;28;20273;-60
2023/04/09 06:19:11;;;;;;;28.80;14.20;;;;;;;;;;5085007;28;20113;-60
2023/04/09 06:21:37;;;;;;;24.10;13.07;;;;;;;;;;5083047;28;20099;-60
2023/04/09 06:24:04;;;;;;;30.08;16.75;;;;;;;;;;5084318;28;20516;-60
2023/04/09 06:26:30;;;;;;;22.80;15.07;;;;;;;;;;5084211;28;20127;-60
2023/04/09 06:28:56;;;;;;;29.77;17.15;;;;;;;;;;5084729;28;20064;-60
2023/04/09 06:31:22;;;;;;;24.48;14.30;;;;;;;;;;5083452;28;20041;-60
2023/04/09 06:33:48;;;;;;;32.75;15.80;;;;;;;;;;5084925;28;20499;-60
2023/04/09 06:36:14;;;;;;;28.27;15.50;;;;;;;;;;5082717;28;20060;-60
2023/04/09 06:38:40;;;;;;;28.33;16.85;;;;;;;;;;5084845;28;21006;-60
2023/04/09 06:41:07;;;;;;;24.63;15.90;;;;;;;;;;5082782;28;20590;-60
2023/04/09 06:43:34;;;;;;;28.42;14.65;;;;;;;;;;5083719;28;20112;-60
2023/04/09 06:46:00;;;;;;;30.33;16.15;;;;;;;;;;5083396;28;20047;-60
2023/04/09 06:48:26;;;;;;;24.48;15.18;;;;;;;;;;5085996;28;20047;-60
2023/04/09 06:50:53;;;;;;;25.38;15.57;;;;;;;;;;5083106;28;20086;-60
2023/04/09 06:53:19;;;;;;;25.05;14.98;;;;;;;;;;5082246;28;20033;-60
2023/04/09 06:55:45;;;;;;;28.30;16.55;;;;;;;;;;5081330;28;20076;-60
2023/04/09 06:58:11;;;;;;;26.08;15.20;;;;;;;;;;5083293;28;20115;-60
2023/04/09 07:00:37;;;;;;;28.95;15.75;;;;;;;;;;5084988;28;20048;-60
2023/04/09 07:03:06;;;;;;;34.15;14.07;;;;;;;;;;5083800;28;20048;-60
2023/04/09 07:05:32;;;;;;;23.52;13.27;;;;;;;;;;5084523;28;20033;-60
2023/04/09 07:07:59;;;;;;;26.17;13.95;;;;;;;;;;5082698;28;20044;-60
2023/04/09 07:10:25;;;;;;;33.25;15.48;;;;;;;;;;5083107;28;20052;-60
2023/04/09 07:12:51;;;;;;;25.63;16.13;;;;;;;;;;5082280;28;20584;-60
2023/04/09 07:15:17;;;;;;;23.92;13.60;;;;;;;;;;5083061;28;20040;-60
2023/04/09 07:17:43;;;;;;;29.92;15.05;;;;;;;;;;5083115;28;20048;-60
2023/04/09 07:20:09;;;;;;;32.67;15.13;;;;;;;;;;5084811;28;20048;-60
2023/04/09 07:22:35;;;;;;;22.48;12.85;;;;;;;;;;5087735;28;20650;-60
2023/04/09 07:25:01;;;;;;;22.70;11.55;;;;;;;;;;5085806;28;20720;-60
2023/04/09 07:27:28;;;;;;;24.60;13.25;;;;;;;;;;5087713;28;20708;-60
2023/04/09 07:29:55;;;;;;;25.27;13.48;;;;;;;;;;5086763;28;20045;-60
2023/04/09 07:32:21;;;;;;;26.23;13.57;;;;;;;;;;5087604;27;20515;-60
2023/04/09 07:34:47;;;;;;;23.33;13.80;;;;;;;;;;5086911;28;20130;-60
2023/04/09 07:37:13;;;;;;;19.23;12.00;;;;;;;;;;5085471;28;20044;-60
2023/04/09 07:39:41;;;;;;;20.92;12.13;;;;;;;;;;5087671;28;20456;-60
2023/04/09 07:42:07;;;;;;;23.33;14.07;;;;;;;;;;5086484;28;20364;-60
2023/04/09 07:44:35;;;;;;;21.33;11.30;;;;;;;;;;5085850;27;21280;-60
2023/04/09 07:47:01;;;;;;;24.80;12.80;;;;;;;;;;5086913;28;20094;-60
2023/04/09 07:49:27;;;;;;;18.40;11.07;;;;;;;;;;5086995;28;20542;-60
2023/04/09 07:51:53;;;;;;;18.10;12.38;;;;;;;;;;5085280;28;20117;-60
2023/04/09 07:54:20;;;;;;;21.00;12.55;;;;;;;;;;5087540;28;20040;-60
2023/04/09 07:56:46;;;;;;;23.70;12.05;;;;;;;;;;5086227;28;20051;-60
2023/04/09 07:59:14;;;;;;;20.20;11.23;;;;;;;;;;5086581;28;20090;-60
2023/04/09 08:01:41;;;;;;;20.48;11.45;;;;;;;;;;5086923;28;20032;-60
2023/04/09 08:04:07;;;;;;;20.67;11.25;;;;;;;;;;5101891;27;20594;-60
2023/04/09 08:06:33;;;;;;;23.42;13.88;;;;;;;;;;5084881;28;20239;-60
2023/04/09 08:08:59;;;;;;;25.25;12.40;;;;;;;;;;5086221;28;21351;-60
2023/04/09 08:11:25;;;;;;;20.85;11.23;;;;;;;;;;5087464;28;20072;-60
2023/04/09 08:13:52;;;;;;;20.10;12.80;;;;;;;;;;5085559;28;20067;-60
2023/04/09 08:16:18;;;;;;;20.95;12.43;;;;;;;;;;5085889;28;20527;-60
2023/04/09 08:18:44;;;;;;;20.30;10.57;;;;;;;;;;5083288;28;20066;-60
2023/04/09 08:21:10;;;;;;;16.60;10.43;;;;;;;;;;5067840;28;20045;-60
2023/04/09 08:23:36;;;;;;;19.65;11.57;;;;;;;;;;5086000;28;20061;-60
2023/04/09 08:26:03;;;;;;;18.92;11.73;;;;;;;;;;5084450;28;20121;-60
2023/04/09 08:28:29;;;;;;;20.25;13.05;;;;;;;;;;5085355;28;20207;-60
2023/04/09 08:30:55;;;;;;;23.67;12.98;;;;;;;;;;5083451;28;20093;-60
2023/04/09 08:33:21;;;;;;;22.45;10.85;;;;;;;;;;5084245;28;20219;-60
2023/04/09 08:35:47;;;;;;;19.67;10.07;;;;;;;;;;5083122;28;20139;-60
2023/04/09 08:38:14;;;;;;;24.83;11.55;;;;;;;;;;5085237;28;20539;-60
2023/04/09 08:40:41;;;;;;;16.73;10.98;;;;;;;;;;5084324;28;20040;-60
2023/04/09 08:43:07;;;;;;;19.95;11.07;;;;;;;;;;5085052;28;20976;-60
2023/04/09 08:45:33;;;;;;;22.52;11.95;;;;;;;;;;5084931;28;20040;-60
2023/04/09 08:48:02;;;;;;;19.88;10.93;;;;;;;;;;5084968;28;20516;-60
2023/04/09 08:50:30;;;;;;;21.90;11.10;;;;;;;;;;5083631;28;20123;-60
2023/04/09 08:52:57;;;;;;;20.95;11.38;;;;;;;;;;5084053;28;20051;-60
2023/04/09 08:55:24;;;;;;;19.77;10.43;;;;;;;;;;5082436;28;20040;-61
2023/04/09 08:57:50;;;;;;;20.42;11.02;;;;;;;;;;5085445;28;20052;-60
2023/04/09 09:00:16;;;;;;;17.27;9.38;;;;;;;;;;5067840;28;20616;-60
2023/04/09 09:03:04;;;;;;;21.38;10.70;;;;;;;;;;5082919;28;20079;-60
2023/04/09 09:05:37;;;;;;;17.67;9.43;;;;;;;;;;5084636;27;20040;-60
2023/04/09 09:08:04;;;;;;;20.20;10.13;;;;;;;;;;5084887;28;20068;-61
2023/04/09 09:10:37;;;;;;;18.50;10.13;;;;;;;;;;5084922;27;20052;-60
2023/04/09 09:13:15;;;;;;;17.60;9.90;;;;;;;;;;5068912;28;20032;-60
2023/04/09 09:15:42;;;;;;;23.23;10.98;;;;;;;;;;5082449;28;20049;-60
2023/04/09 09:18:08;;;;;;;20.58;11.60;;;;;;;;;;5083469;28;20049;-60
2023/04/09 09:20:34;;;;;;;18.75;10.98;;;;;;;;;;5083801;28;20086;-60
2023/04/09 09:23:01;;;;;;;15.93;10.65;;;;;;;;;;5083951;28;20036;-60
2023/04/09 09:25:27;;;;;;;16.63;8.13;;;;;;;;;;5085732;28;20475;-60
2023/04/09 09:27:54;;;;;;;16.85;8.52;;;;;;;;;;5085551;28;20440;-60
2023/04/09 09:30:31;;;;;;;14.80;9.60;;;;;;;;;;5085288;27;20159;-60
2023/04/09 09:33:07;;;;;;;15.73;9.77;;;;;;;;;;5084967;28;20115;-60
2023/04/09 09:35:53;;;;;;;18.52;9.43;;;;;;;;;;5084181;28;20040;-60
2023/04/09 09:38:19;;;;;;;12.18;7.82;;;;;;;;;;5084387;28;20043;-60
2023/04/09 09:40:46;;;;;;;17.73;10.55;;;;;;;;;;5084075;27;20504;-60
2023/04/09 09:43:13;;;;;;;14.93;8.57;;;;;;;;;;5084086;28;20040;-61
2023/04/09 09:45:40;;;;;;;17.27;7.55;;;;;;;;;;5084454;28;20028;-60
2023/04/09 09:48:06;;;;;;;16.88;9.23;;;;;;;;;;5082309;28;20976;-60
2023/04/09 09:50:34;;;;;;;11.90;7.00;;;;;;;;;;5083380;28;20044;-60
2023/04/09 09:53:06;;;;;;;17.02;9.70;;;;;;;;;;5086288;28;20037;-60
2023/04/09 09:55:33;;;;;;;18.00;10.02;;;;;;;;;;5083753;28;20064;-60
2023/04/09 09:58:02;;;;;;;13.02;7.53;;;;;;;;;;5083855;28;20045;-60
2023/04/09 10:00:30;;;;;;;14.60;8.25;;;;;;;;;;5083706;28;20055;-60
2023/04/09 10:02:58;;;;;;;15.70;8.32;;;;;;;;;;5084391;28;20032;-60
2023/04/09 10:05:26;;;;;;;11.98;6.45;;;;;;;;;;5084135;28;20554;-61
2023/04/09 10:07:57;;;;;;;15.40;6.20;;;;;;;;;;5083172;27;20045;-60
2023/04/09 10:10:24;;;;;;;10.45;6.90;;;;;;;;;;5082314;28;20063;-60
2023/04/09 10:12:52;;;;;;;12.18;7.38;;;;;;;;;;5083520;28;20063;-60
2023/04/09 10:15:18;;;;;;;9.43;5.20;;;;;;;;;;5083929;28;20533;-60
2023/04/09 10:17:45;;;;;;;7.43;4.80;;;;;;;;;;5083704;28;20044;-60
2023/04/09 10:20:14;;;;;;;9.20;5.75;;;;;;;;;;5083567;27;20128;-62
2023/04/09 10:22:42;;;;;;;9.18;5.93;;;;;;;;;;5084082;28;20045;-60
2023/04/09 10:25:09;;;;;;;9.48;6.10;;;;;;;;;;5085174;28;20047;-60
2023/04/09 10:27:36;;;;;;;12.05;5.15;;;;;;;;;;5083348;28;20040;-60
2023/04/09 10:30:04;;;;;;;9.68;5.05;;;;;;;;;;5085126;28;20836;-60
2023/04/09 10:32:34;;;;;;;6.75;4.20;;;;;;;;;;5084837;28;20044;-60
2023/04/09 10:35:02;;;;;;;9.57;4.97;;;;;;;;;;5068356;28;20579;-60
2023/04/09 10:37:28;;;;;;;10.13;4.80;;;;;;;;;;5081448;28;20138;-60
2023/04/09 10:39:55;;;;;;;8.10;4.68;;;;;;;;;;5083451;28;20511;-60
2023/04/09 10:42:37;;;;;;;8.77;6.18;;;;;;;;;;5081767;27;20055;-60
2023/04/09 10:45:03;;;;;;;14.07;5.63;;;;;;;;;;5083658;28;20122;-60
2023/04/09 10:47:37;;;;;;;11.80;6.53;;;;;;;;;;5082721;28;20056;-60
2023/04/09 10:50:24;;;;;;;10.77;4.70;;;;;;;;;;5084695;28;20040;-60
2023/04/09 10:52:55;;;;;;;10.35;4.15;;;;;;;;;;5084265;27;20139;-60
2023/04/09 10:55:30;;;;;;;7.05;3.90;;;;;;;;;;5087552;28;20534;-60
2023/04/09 10:57:56;;;;;;;5.90;3.70;;;;;;;;;;5087245;28;20605;-60
2023/04/09 11:00:23;;;;;;;6.68;4.93;;;;;;;;;;5087463;28;20684;-60
2023/04/09 11:03:07;;;;;;;9.25;5.00;;;;;;;;;;5088772;28;20084;-60
2023/04/09 11:05:35;;;;;;;8.38;4.78;;;;;;;;;;5087504;27;20046;-60
2023/04/09 11:08:04;;;;;;;7.38;4.50;;;;;;;;;;5084972;28;20057;-60
2023/04/09 11:10:30;;;;;;;6.70;4.25;;;;;;;;;;5086821;28;20119;-60
2023/04/09 11:12:57;;;;;;;7.53;4.40;;;;;;;;;;5086299;28;20047;-60
2023/04/09 11:15:23;;;;;;;7.78;4.20;;;;;;;;;;5086941;28;20490;-60
2023/04/09 11:17:49;;;;;;;6.10;3.95;;;;;;;;;;5086668;28;20055;-60
2023/04/09 11:20:16;;;;;;;11.40;5.07;;;;;;;;;;5086377;28;20036;-60
2023/04/09 11:22:42;;;;;;;5.88;3.92;;;;;;;;;;5085529;28;20040;-60
2023/04/09 11:25:09;;;;;;;7.95;4.53;;;;;;;;;;5071190;28;20140;-60
2023/04/09 11:27:38;;;;;;;7.07;4.78;;;;;;;;;;5068687;28;20052;-60
2023/04/09 11:30:05;;;;;;;10.85;5.22;;;;;;;;;;5088442;28;20036;-60
2023/04/09 11:32:31;;;;;;;10.15;6.85;;;;;;;;;;5087636;27;20044;-60
2023/04/09 11:34:57;;;;;;;7.35;3.75;;;;;;;;;;5088779;28;20040;-60
2023/04/09 11:37:23;;;;;;;8.48;4.57;;;;;;;;;;5086738;28;20052;-60
2023/04/09 11:39:53;;;;;;;10.98;4.90;;;;;;;;;;5087866;28;20044;-60
2023/04/09 11:42:20;;;;;;;7.88;4.95;;;;;;;;;;5086474;27;20047;-60
2023/04/09 11:44:48;;;;;;;6.30;4.22;;;;;;;;;;5086360;28;20047;-60
2023/04/09 11:47:18;;;;;;;6.90;4.07;;;;;;;;;;5086758;28;20796;-60
2023/04/09 11:49:46;;;;;;;10.52;4.70;;;;;;;;;;5087259;28;20075;-60
2023/04/09 11:52:12;;;;;;;5.50;3.92;;;;;;;;;;5084478;28;20985;-60
2023/04/09 11:54:38;;;;;;;7.50;4.20;;;;;;;;;;5087378;28;20078;-60
2023/04/09 11:57:04;;;;;;;6.45;4.05;;;;;;;;;;5081655;28;20051;-60
2023/04/09 11:59:30;;;;;;;6.70;4.55;;;;;;;;;;5070566;28;21294;-60
2023/04/09 12:02:00;;;;;;;8.57;4.13;;;;;;;;;;5085166;28;20062;-60
2023/04/09 12:04:26;;;;;;;5.10;3.92;;;;;;;;;;5085346;27;20028;-60
2023/04/09 12:06:57;;;;;;;8.80;4.63;;;;;;;;;;5084719;28;20048;-60
2023/04/09 12:09:23;;;;;;;5.20;3.53;;;;;;;;;;5100287;27;20049;-60
2023/04/09 12:11:49;;;;;;;6.80;4.30;;;;;;;;;;5085029;28;20343;-60
2023/04/09 12:14:16;;;;;;;7.38;3.45;;;;;;;;;;5084447;28;20044;-60
2023/04/09 12:16:43;;;;;;;6.63;3.50;;;;;;;;;;5085641;28;20040;-60
2023/04/09 12:19:10;;;;;;;7.07;3.40;;;;;;;;;;5069110;28;20134;-60
2023/04/09 12:21:46;;;;;;;6.80;3.88;;;;;;;;;;5087469;28;20618;-60
2023/04/09 12:24:13;;;;;;;5.50;3.03;;;;;;;;;;5085544;28;20128;-60
2023/04/09 12:26:39;;;;;;;3.90;2.97;;;;;;;;;;5086950;28;20036;-60
2023/04/09 12:29:05;;;;;;;5.72;3.33;;;;;;;;;;5084865;28;20036;-60
2023/04/09 12:31:31;;;;;;;10.40;3.95;;;;;;;;;;5085416;28;20547;-60
2023/04/09 12:33:57;;;;;;;6.28;4.15;;;;;;;;;;5086673;28;20044;-60
2023/04/09 12:36:23;;;;;;;4.88;2.80;;;;;;;;;;5085554;28;20049;-60
2023/04/09 12:38:49;;;;;;;6.32;2.92;;;;;;;;;;5068953;28;20402;-60
2023/04/09 12:41:16;;;;;;;7.63;3.72;;;;;;;;;;5084743;27;20074;-60
2023/04/09 12:43:42;;;;;;;6.75;3.80;;;;;;;;;;5085111;28;20163;-60
2023/04/09 12:46:08;;;;;;;6.28;3.47;;;;;;;;;;5067888;28;20048;-60
2023/04/09 12:48:35;;;;;;;7.72;3.92;;;;;;;;;;5084871;28;20041;-61
2023/04/09 12:51:01;;;;;;;5.40;3.10;;;;;;;;;;5085609;28;20280;-60
2023/04/09 12:53:27;;;;;;;6.57;3.90;;;;;;;;;;5066896;28;20044;-60
2023/04/09 12:55:53;;;;;;;5.18;3.38;;;;;;;;;;5085806;28;20605;-60
2023/04/09 12:58:19;;;;;;;5.72;3.05;;;;;;;;;;5083942;28;20041;-60
2023/04/09 13:00:46;;;;;;;4.57;3.20;;;;;;;;;;5084469;27;20167;-60
2023/04/09 13:03:15;;;;;;;6.43;3.40;;;;;;;;;;5085401;28;20561;-60
2023/04/09 13:05:41;;;;;;;5.82;3.30;;;;;;;;;;5066850;28;20048;-60
2023/04/09 13:08:07;;;;;;;6.93;3.00;;;;;;;;;;5083549;28;20088;-60
2023/04/09 13:10:33;;;;;;;4.50;3.60;;;;;;;;;;5085685;28;20563;-60
2023/04/09 13:13:00;;;;;;;5.55;3.22;;;;;;;;;;5083337;28;20611;-60
2023/04/09 13:15:26;;;;;;;7.85;2.75;;;;;;;;;;5085366;28;20043;-60
2023/04/09 13:17:52;;;;;;;7.05;3.30;;;;;;;;;;5083703;28;20072;-60
2023/04/09 13:20:19;;;;;;;4.65;3.25;;;;;;;;;;5085209;28;20131;-60
2023/04/09 13:22:47;;;;;;;10.13;3.70;;;;;;;;;;5086553;28;20517;-60
2023/04/09 13:25:14;;;;;;;4.40;2.92;;;;;;;;;;5085133;28;20103;-60
2023/04/09 13:27:40;;;;;;;4.35;2.58;;;;;;;;;;5069332;28;20524;-60
2023/04/09 13:30:07;;;;;;;5.75;3.25;;;;;;;;;;5083131;28;20093;-60
2023/04/09 13:32:33;;;;;;;5.57;3.20;;;;;;;;;;5069241;28;20101;-60
2023/04/09 13:34:59;;;;;;;9.07;4.28;;;;;;;;;;5085205;28;20044;-60
2023/04/09 13:37:26;;;;;;;6.25;3.20;;;;;;;;;;5085245;28;20517;-60
2023/04/09 13:39:52;;;;;;;6.40;3.40;;;;;;;;;;5083559;28;20041;-60
2023/04/09 13:42:18;;;;;;;10.60;3.22;;;;;;;;;;5083966;28;20110;-60
2023/04/09 13:44:44;;;;;;;5.57;3.00;;;;;;;;;;5082438;28;20060;-60
2023/04/09 13:47:12;;;;;;;5.88;3.25;;;;;;;;;;5084049;28;20040;-60
2023/04/09 13:49:38;;;;;;;6.03;3.47;;;;;;;;;;5084476;28;20078;-60
2023/04/09 13:52:05;;;;;;;5.13;3.40;;;;;;;;;;5084847;28;20487;-60
2023/04/09 13:54:31;;;;;;;5.47;2.85;;;;;;;;;;5083859;27;20353;-60
2023/04/09 13:56:57;;;;;;;4.57;2.60;;;;;;;;;;5085031;28;20111;-60
2023/04/09 13:59:23;;;;;;;4.85;2.70;;;;;;;;;;5083449;28;20048;-61
2023/04/09 14:01:49;;;;;;;4.35;3.00;;;;;;;;;;5082705;28;20044;-60
2023/04/09 14:04:16;;;;;;;7.05;4.25;;;;;;;;;;5084496;28;20072;-60
2023/04/09 14:06:42;;;;;;;4.70;3.30;;;;;;;;;;5083026;28;20032;-60
2023/04/09 14:09:09;;;;;;;5.72;2.88;;;;;;;;;;5066767;28;20536;-60
2023/04/09 14:11:35;;;;;;;5.53;3.00;;;;;;;;;;5068517;28;20048;-60
2023/04/09 14:14:01;;;;;;;6.07;2.65;;;;;;;;;;5084153;28;20263;-60
2023/04/09 14:16:29;;;;;;;4.55;2.45;;;;;;;;;;5083921;28;20044;-60
2023/04/09 14:18:55;;;;;;;6.13;3.00;;;;;;;;;;5067954;28;20032;-60
2023/04/09 14:21:21;;;;;;;5.60;3.08;;;;;;;;;;5083805;28;20071;-60
2023/04/09 14:23:47;;;;;;;8.20;3.70;;;;;;;;;;5084889;28;20494;-60